Time;durP1;ratioP1;P1;durP2;ratioP2;P2;SDS_P1;SDS_P2;PMS_P1;PMS_P2;Temp;Humidity;BMP_temperature;BMP_pressure;BME280_temperature;BME280_humidity;BME280_pressure;Samples;Min_cycle;Max_cycle;Signal;HPM_P1;HPM_P2
2022/10/05 00:00:13;;;;;;;0.00;0.00;;;21.10;68.30;;;;;;5065199;28;20040;-40
2022/10/05 00:02:39;;;;;;;0.30;0.10;;;21.10;67.70;;;;;;5066201;28;20059;-39
2022/10/05 00:05:33;;;;;;;0.00;0.00;;;21.10;67.50;;;;;;5065479;28;20044;-39
2022/10/05 00:08:36;;;;;;;0.10;0.10;;;21.10;67.50;;;;;;5055770;28;20048;-38
2022/10/05 00:11:04;;;;;;;0.00;0.00;;;21.10;67.60;;;;;;5047210;28;20045;-37
2022/10/05 00:13:30;;;;;;;0.10;0.10;;;21.10;67.50;;;;;;5045211;28;20056;-40
2022/10/05 00:16:04;;;;;;;0.17;0.00;;;21.10;67.40;;;;;;5052425;28;20037;-37
2022/10/05 00:18:30;;;;;;;0.10;0.10;;;21.10;67.30;;;;;;5045970;28;20049;-40
2022/10/05 00:20:55;;;;;;;0.00;0.00;;;21.10;67.40;;;;;;5047031;28;20052;-43
2022/10/05 00:23:30;;;;;;;0.00;0.00;;;21.10;67.30;;;;;;5031520;28;20112;-40
2022/10/05 00:26:20;;;;;;;0.10;0.00;;;21.10;67.20;;;;;;5054247;28;20133;-39
2022/10/05 00:28:46;;;;;;;0.10;0.00;;;21.10;67.00;;;;;;5044244;28;20070;-39
2022/10/05 00:31:22;;;;;;;0.10;0.00;;;21.10;67.20;;;;;;5052075;28;20170;-46
2022/10/05 00:33:48;;;;;;;0.20;0.10;;;21.10;67.10;;;;;;5054425;28;20072;-46
2022/10/05 00:36:13;;;;;;;0.47;0.13;;;21.10;67.10;;;;;;5050314;28;20194;-47
2022/10/05 00:38:39;;;;;;;0.20;0.10;;;21.10;67.10;;;;;;5051914;28;20045;-47
2022/10/05 00:41:14;;;;;;;0.20;0.10;;;21.20;66.90;;;;;;5045214;28;20041;-47
2022/10/05 00:44:02;;;;;;;0.00;0.00;;;21.10;66.90;;;;;;5051763;28;20136;-47
2022/10/05 00:46:48;;;;;;;0.00;0.00;;;21.10;67.00;;;;;;5048524;28;20159;-47
2022/10/05 00:49:47;;;;;;;0.10;0.10;;;21.10;66.90;;;;;;5041865;28;20048;-47
2022/10/05 00:52:34;;;;;;;0.00;0.00;;;21.10;67.00;;;;;;5001318;28;20041;-46
2022/10/05 00:55:27;;;;;;;0.10;0.10;;;21.10;66.80;;;;;;5038350;28;20408;-46
2022/10/05 00:58:15;;;;;;;0.00;0.00;;;21.20;66.90;;;;;;5076128;28;20395;-47
2022/10/05 01:01:05;;;;;;;0.20;0.08;;;21.20;66.90;;;;;;5067131;28;20076;-47
2022/10/05 01:03:57;;;;;;;0.45;0.10;;;21.10;66.90;;;;;;5041197;28;20044;-47
2022/10/05 01:06:38;;;;;;;0.20;0.10;;;21.20;66.80;;;;;;5037095;28;20086;-40
2022/10/05 01:09:21;;;;;;;0.10;0.00;;;21.20;66.90;;;;;;5046487;28;20032;-48
2022/10/05 01:11:52;;;;;;;0.03;0.03;;;21.20;66.80;;;;;;5080414;28;20049;-46
2022/10/05 01:14:22;;;;;;;0.00;0.00;;;21.20;66.60;;;;;;5053545;28;20474;-46
2022/10/05 01:17:29;;;;;;;0.00;0.00;;;21.20;66.70;;;;;;5064671;28;20048;-46
2022/10/05 01:20:05;;;;;;;0.03;0.03;;;21.20;66.70;;;;;;5036657;28;20120;-47
2022/10/05 01:22:51;;;;;;;0.00;0.00;;;21.20;66.70;;;;;;5043098;28;20045;-47
2022/10/05 01:25:37;;;;;;;0.00;0.00;;;21.20;66.70;;;;;;5027252;28;20041;-47
2022/10/05 01:28:12;;;;;;;0.00;0.00;;;21.10;66.70;;;;;;5026695;28;20527;-47
2022/10/05 01:31:27;;;;;;;0.00;0.00;;;21.20;66.60;;;;;;5015672;28;20123;-47
2022/10/05 01:34:04;;;;;;;0.10;0.10;;;21.10;66.60;;;;;;4966416;28;20088;-46
2022/10/05 01:36:33;;;;;;;0.00;0.00;;;21.10;66.60;;;;;;4984120;28;20050;-46
2022/10/05 01:39:04;;;;;;;0.08;0.08;;;21.10;66.60;;;;;;4984271;28;20576;-47
2022/10/05 01:41:50;;;;;;;0.05;0.03;;;21.10;66.50;;;;;;4983904;28;20390;-46
2022/10/05 01:44:59;;;;;;;0.00;0.00;;;21.10;67.10;;;;;;4984006;28;20069;-48
2022/10/05 01:47:30;;;;;;;0.00;0.00;;;21.10;66.60;;;;;;4979633;28;20054;-47
2022/10/05 01:50:00;;;;;;;0.13;0.00;;;21.20;66.50;;;;;;4981422;28;20065;-48
2022/10/05 01:52:31;;;;;;;0.10;0.00;;;21.10;66.50;;;;;;4978234;28;20113;-40
2022/10/05 01:54:57;;;;;;;0.10;0.10;;;21.10;66.40;;;;;;4988106;28;20069;-45
2022/10/05 01:57:54;;;;;;;0.00;0.00;;;21.20;66.40;;;;;;4995285;28;20504;-47
2022/10/05 02:00:20;;;;;;;0.17;0.10;;;21.20;66.40;;;;;;5004432;28;20038;-47
2022/10/05 02:03:01;;;;;;;0.10;0.00;;;21.20;66.40;;;;;;4990290;28;20677;-47
2022/10/05 02:05:46;;;;;;;0.20;0.20;;;21.20;66.40;;;;;;4986304;28;20053;-47
2022/10/05 02:08:20;;;;;;;0.10;0.00;;;21.20;66.40;;;;;;4991845;28;20054;-47
2022/10/05 02:10:49;;;;;;;0.10;0.08;;;21.20;66.40;;;;;;5065677;28;20045;-46
2022/10/05 02:13:20;;;;;;;0.00;0.00;;;21.20;66.30;;;;;;5055950;28;20474;-50
2022/10/05 02:15:52;;;;;;;0.10;0.00;;;21.20;66.40;;;;;;5069540;28;20131;-47
2022/10/05 02:18:20;;;;;;;0.10;0.10;;;21.20;66.30;;;;;;5061327;28;20135;-47
2022/10/05 02:20:45;;;;;;;0.00;0.00;;;21.20;66.40;;;;;;5046145;28;20513;-48
2022/10/05 02:23:18;;;;;;;0.32;0.10;;;21.20;66.30;;;;;;5060866;28;20044;-47
2022/10/05 02:25:45;;;;;;;0.08;0.00;;;21.20;66.20;;;;;;5091315;28;20049;-47
2022/10/05 02:28:27;;;;;;;0.15;0.15;;;21.20;66.30;;;;;;5055376;28;20048;-47
2022/10/05 02:31:16;;;;;;;0.10;0.10;;;21.10;66.40;;;;;;5055153;28;20045;-47
2022/10/05 02:33:42;;;;;;;0.08;0.08;;;21.20;66.30;;;;;;5046767;28;20315;-46
2022/10/05 02:36:24;;;;;;;0.10;0.10;;;21.20;66.40;;;;;;5045363;28;20037;-47
2022/10/05 02:39:18;;;;;;;0.00;0.00;;;21.20;66.50;;;;;;5065808;28;20083;-47
2022/10/05 02:42:11;;;;;;;0.00;0.00;;;21.20;66.40;;;;;;5083023;28;20052;-46
2022/10/05 02:44:44;;;;;;;0.17;0.00;;;21.20;66.50;;;;;;5068668;28;20083;-46
2022/10/05 02:47:32;;;;;;;0.10;0.10;;;21.10;66.30;;;;;;5053108;28;20111;-46
2022/10/05 02:50:26;;;;;;;0.10;0.10;;;21.20;66.40;;;;;;5041657;28;20056;-47
2022/10/05 02:53:06;;;;;;;0.05;0.00;;;21.10;66.40;;;;;;5041971;28;20053;-47
2022/10/05 02:56:06;;;;;;;0.10;0.10;;;21.10;66.40;;;;;;5047880;28;20041;-47
2022/10/05 02:58:43;;;;;;;0.00;0.00;;;21.10;66.30;;;;;;5045848;28;20622;-47
2022/10/05 03:01:24;;;;;;;0.08;0.00;;;21.10;66.50;;;;;;5043264;28;20041;-46
2022/10/05 03:04:09;;;;;;;0.30;0.30;;;21.10;66.40;;;;;;5064083;28;20088;-46
2022/10/05 03:06:39;;;;;;;0.10;0.00;;;21.10;66.40;;;;;;5056437;28;20037;-45
2022/10/05 03:09:05;;;;;;;0.00;0.00;;;21.10;66.30;;;;;;5063402;28;20041;-47
2022/10/05 03:11:34;;;;;;;0.00;0.00;;;21.10;66.30;;;;;;5050348;28;20037;-46
2022/10/05 03:14:09;;;;;;;0.00;0.00;;;21.20;66.40;;;;;;5066274;28;20135;-48
2022/10/05 03:17:06;;;;;;;3.95;0.57;;;21.10;66.20;;;;;;5055245;28;20111;-46
2022/10/05 03:20:06;;;;;;;0.05;0.05;;;21.10;66.30;;;;;;5040648;28;20057;-47
2022/10/05 03:22:48;;;;;;;0.10;0.10;;;21.10;66.40;;;;;;5043440;28;20521;-45
2022/10/05 03:25:22;;;;;;;0.28;0.10;;;21.10;66.50;;;;;;5068450;28;20101;-47
2022/10/05 03:27:59;;;;;;;0.20;0.10;;;21.10;66.50;;;;;;5066387;28;20045;-46
2022/10/05 03:30:26;;;;;;;0.20;0.10;;;21.10;67.40;;;;;;5058303;28;20045;-48
2022/10/05 03:33:15;;;;;;;0.10;0.10;;;21.10;66.60;;;;;;5073784;28;20049;-47
2022/10/05 03:36:02;;;;;;;0.10;0.10;;;21.10;66.60;;;;;;5049101;28;20551;-47
2022/10/05 03:38:56;;;;;;;0.13;0.10;;;21.10;66.70;;;;;;5058217;28;20068;-43
2022/10/05 03:41:24;;;;;;;0.10;0.10;;;21.10;66.60;;;;;;5045260;28;20076;-46
2022/10/05 03:43:58;;;;;;;0.10;0.00;;;21.10;66.70;;;;;;5072626;28;20532;-46
2022/10/05 03:46:34;;;;;;;0.10;0.10;;;21.10;66.70;;;;;;5065944;28;20455;-46
2022/10/05 03:49:12;;;;;;;0.20;0.10;;;21.10;67.50;;;;;;5079624;28;20044;-46
2022/10/05 03:51:42;;;;;;;0.10;0.10;;;21.10;66.70;;;;;;5063555;28;20040;-48
2022/10/05 03:54:09;;;;;;;0.00;0.00;;;21.10;66.60;;;;;;5048197;28;20045;-46
2022/10/05 03:56:39;;;;;;;0.10;0.10;;;21.10;66.60;;;;;;5055718;28;20128;-46
2022/10/05 03:59:31;;;;;;;0.13;0.13;;;21.10;66.60;;;;;;5067371;28;20135;-46
2022/10/05 04:02:00;;;;;;;0.00;0.00;;;21.10;66.60;;;;;;5042657;28;20080;-46
2022/10/05 04:04:34;;;;;;;0.10;0.10;;;21.10;66.60;;;;;;5061675;28;20045;-47
2022/10/05 04:06:59;;;;;;;0.03;0.03;;;21.10;66.60;;;;;;5034532;28;20037;-46
2022/10/05 04:09:42;;;;;;;0.00;0.00;;;21.10;66.50;;;;;;5038875;28;20119;-46
2022/10/05 04:12:36;;;;;;;0.10;0.10;;;21.10;66.60;;;;;;5065114;28;20053;-45
2022/10/05 04:15:14;;;;;;;0.10;0.10;;;21.10;66.60;;;;;;5047847;28;20040;-47
2022/10/05 04:17:42;;;;;;;0.10;0.10;;;21.10;66.70;;;;;;5057591;28;20053;-49
2022/10/05 04:20:25;;;;;;;0.10;0.10;;;21.10;66.80;;;;;;5032786;28;20084;-48
2022/10/05 04:23:09;;;;;;;0.10;0.10;;;21.10;66.60;;;;;;5062579;28;20622;-43
2022/10/05 04:25:38;;;;;;;0.08;0.08;;;21.10;66.70;;;;;;5048706;28;20117;-59
2022/10/05 04:28:10;;;;;;;0.05;0.05;;;21.10;66.70;;;;;;5050968;28;20140;-46
2022/10/05 04:30:38;;;;;;;0.10;0.10;;;21.10;66.70;;;;;;5055414;28;20086;-41
2022/10/05 04:33:07;;;;;;;0.20;0.10;;;21.10;66.70;;;;;;5046719;28;20542;-51
2022/10/05 04:36:00;;;;;;;0.20;0.15;;;21.10;66.70;;;;;;5089969;28;20052;-44
2022/10/05 04:38:49;;;;;;;0.08;0.08;;;21.10;66.90;;;;;;5050310;28;20041;-55
2022/10/05 04:41:47;;;;;;;0.10;0.10;;;21.10;66.80;;;;;;5041667;28;20041;-56
2022/10/05 04:44:35;;;;;;;0.10;0.10;;;21.10;66.80;;;;;;5054360;28;20041;-45
2022/10/05 04:47:23;;;;;;;0.00;0.00;;;21.10;66.70;;;;;;5033330;28;20049;-44
2022/10/05 04:50:07;;;;;;;0.00;0.00;;;21.10;66.80;;;;;;5052680;28;20063;-48
2022/10/05 04:53:00;;;;;;;0.10;0.10;;;21.10;66.90;;;;;;5042360;28;20041;-41
2022/10/05 04:55:30;;;;;;;0.10;0.00;;;21.10;66.70;;;;;;5051790;28;20036;-44
2022/10/05 04:58:11;;;;;;;0.10;0.10;;;21.10;66.70;;;;;;5060356;28;20045;-47
2022/10/05 05:01:01;;;;;;;0.10;0.10;;;21.00;66.70;;;;;;5063504;28;20045;-52
2022/10/05 05:04:13;;;;;;;0.20;0.20;;;21.10;66.80;;;;;;5062960;28;20040;-57
2022/10/05 05:06:58;;;;;;;0.10;0.10;;;21.00;66.70;;;;;;5034381;28;20050;-54
2022/10/05 05:09:48;;;;;;;0.10;0.10;;;21.00;66.70;;;;;;4690273;28;10000537;-51
2022/10/05 05:12:23;;;;;;;0.20;0.13;;;21.00;67.50;;;;;;5031055;28;20099;-48
2022/10/05 05:14:49;;;;;;;0.03;0.00;;;21.00;67.40;;;;;;5033718;28;20581;-51
2022/10/05 05:17:40;;;;;;;0.00;0.00;;;21.00;67.80;;;;;;5052184;28;20127;-42
2022/10/05 05:20:18;;;;;;;0.05;0.05;;;21.00;67.70;;;;;;5050373;28;20054;-49
2022/10/05 05:22:58;;;;;;;0.22;0.15;;;21.10;67.20;;;;;;5056506;28;20048;-51
2022/10/05 05:25:29;;;;;;;0.10;0.10;;;21.00;67.50;;;;;;5042138;28;20045;-41
2022/10/05 05:28:11;;;;;;;0.10;0.00;;;21.00;67.50;;;;;;5054791;28;20052;-51
2022/10/05 05:30:43;;;;;;;0.10;0.10;;;21.10;68.80;;;;;;5040733;28;20051;-41
2022/10/05 05:33:24;;;;;;;0.10;0.08;;;21.10;67.90;;;;;;5033795;28;20049;-45
2022/10/05 05:36:27;;;;;;;0.10;0.10;;;21.00;68.10;;;;;;5040188;28;20048;-52
2022/10/05 05:39:47;;;;;;;0.03;0.03;;;21.00;68.20;;;;;;5053833;28;20041;-58
2022/10/05 05:42:37;;;;;;;0.00;0.00;;;21.00;68.30;;;;;;5029300;28;20522;-48
2022/10/05 05:45:14;;;;;;;0.70;0.10;;;21.10;68.20;;;;;;5054085;28;20045;-50
2022/10/05 05:47:40;;;;;;;0.10;0.10;;;21.00;68.20;;;;;;5042301;28;20052;-46
2022/10/05 05:50:31;;;;;;;0.10;0.10;;;21.00;68.40;;;;;;5053627;28;20041;-50
2022/10/05 05:53:25;;;;;;;0.00;0.00;;;21.00;68.30;;;;;;5055108;28;20060;-57
2022/10/05 05:55:52;;;;;;;0.52;0.10;;;21.00;68.20;;;;;;5061387;28;20116;-50
2022/10/05 05:58:18;;;;;;;0.08;0.08;;;21.00;68.40;;;;;;5042555;28;20564;-49
2022/10/05 06:01:08;;;;;;;0.10;0.10;;;21.10;68.30;;;;;;5061110;28;20045;-49
2022/10/05 06:03:39;;;;;;;0.20;0.03;;;21.00;68.30;;;;;;5047080;28;20411;-46
2022/10/05 06:06:15;;;;;;;0.30;0.10;;;21.10;68.30;;;;;;5061374;28;20051;-53
2022/10/05 06:08:59;;;;;;;0.10;0.10;;;21.10;68.40;;;;;;5060684;28;20075;-57
2022/10/05 06:11:28;;;;;;;0.25;0.10;;;21.10;68.00;;;;;;5064135;28;20515;-51
2022/10/05 06:13:55;;;;;;;0.20;0.10;;;21.10;68.00;;;;;;5059785;28;20049;-58
2022/10/05 06:16:38;;;;;;;0.10;0.00;;;21.10;67.90;;;;;;5064409;28;20091;-52
2022/10/05 06:19:08;;;;;;;0.98;0.20;;;21.10;67.70;;;;;;5055001;28;20095;-57
2022/10/05 06:21:44;;;;;;;0.38;0.20;;;21.10;67.80;;;;;;5077319;28;20047;-49
2022/10/05 06:24:15;;;;;;;0.50;0.10;;;21.10;67.90;;;;;;5039262;28;20044;-52
2022/10/05 06:27:08;;;;;;;0.73;0.30;;;21.00;68.00;;;;;;5062954;28;20072;-53
2022/10/05 06:30:06;;;;;;;0.10;0.10;;;21.10;68.00;;;;;;5058395;28;20059;-41
2022/10/05 06:32:50;;;;;;;0.40;0.20;;;21.10;67.80;;;;;;5047994;28;20409;-44
2022/10/05 06:35:52;;;;;;;0.32;0.10;;;21.10;67.80;;;;;;5040968;28;20052;-38
2022/10/05 06:38:47;;;;;;;0.10;0.10;;;21.10;67.70;;;;;;5050334;28;20052;-39
2022/10/05 06:41:18;;;;;;;1.45;0.10;;;21.10;67.80;;;;;;5081385;28;20141;-39
2022/10/05 06:44:00;;;;;;;1.02;0.10;;;21.10;67.70;;;;;;5055943;28;20128;-39
2022/10/05 06:46:47;;;;;;;0.03;0.03;;;21.10;67.90;;;;;;5063083;28;20038;-38
2022/10/05 06:49:41;;;;;;;0.22;0.13;;;21.10;68.40;;;;;;5060084;28;20407;-39
2022/10/05 06:52:49;;;;;;;1.23;0.17;;;21.10;68.00;;;;;;5048859;28;20050;-39
2022/10/05 06:55:29;;;;;;;0.40;0.10;;;21.10;68.00;;;;;;5047945;28;20036;-39
2022/10/05 06:58:34;;;;;;;0.20;0.20;;;21.10;67.60;;;;;;5063228;28;20041;-38
2022/10/05 07:01:24;;;;;;;0.10;0.10;;;21.20;67.60;;;;;;5033045;28;20045;-39
2022/10/05 07:04:09;;;;;;;0.10;0.10;;;21.10;67.60;;;;;;5029163;28;20031;-39
2022/10/05 07:06:38;;;;;;;0.47;0.10;;;21.10;67.40;;;;;;5054810;28;20093;-37
2022/10/05 07:09:21;;;;;;;0.13;0.10;;;21.10;67.40;;;;;;5028614;28;20040;-40
2022/10/05 07:12:24;;;;;;;0.10;0.10;;;21.00;67.90;;;;;;5049776;28;20045;-40
2022/10/05 07:15:11;;;;;;;0.57;0.10;;;21.00;68.20;;;;;;5042107;28;20060;-38
2022/10/05 07:17:57;;;;;;;0.47;0.10;;;21.00;68.40;;;;;;5044298;28;20041;-40
2022/10/05 07:20:51;;;;;;;1.05;0.08;;;21.10;68.20;;;;;;5063518;28;20066;-41
2022/10/05 07:23:26;;;;;;;1.75;0.10;;;21.10;68.70;;;;;;5058271;28;20473;-39
2022/10/05 07:26:19;;;;;;;0.35;0.13;;;21.10;68.80;;;;;;5056220;28;20087;-39
2022/10/05 07:29:06;;;;;;;0.50;0.08;;;21.00;69.30;;;;;;5074657;28;20044;-39
2022/10/05 07:31:35;;;;;;;0.20;0.10;;;21.00;68.40;;;;;;5043082;28;20074;-37
2022/10/05 07:34:23;;;;;;;0.38;0.20;;;21.00;68.20;;;;;;5052764;28;20057;-37
2022/10/05 07:40:16;;;;;;;1.00;0.60;;;21.00;68.60;;;;;;5063308;28;20743;-39
2022/10/05 07:42:47;;;;;;;1.42;0.57;;;21.00;68.50;;;;;;5029017;28;20076;-39
2022/10/05 07:45:25;;;;;;;1.77;0.82;;;21.00;68.40;;;;;;5026981;28;20095;-39
2022/10/05 07:47:53;;;;;;;1.38;1.00;;;21.00;68.20;;;;;;5058299;28;20510;-39
2022/10/05 07:50:49;;;;;;;3.05;1.45;;;21.00;68.40;;;;;;5061242;28;20036;-38
2022/10/05 07:53:21;;;;;;;1.83;1.23;;;21.10;68.50;;;;;;5029973;28;20045;-39
2022/10/05 07:55:50;;;;;;;2.50;1.50;;;21.10;68.50;;;;;;5037588;28;20525;-40
2022/10/05 07:58:28;;;;;;;1.40;1.00;;;21.10;68.50;;;;;;5048781;28;20048;-41
2022/10/05 08:01:10;;;;;;;3.58;1.00;;;21.10;68.00;;;;;;5056989;28;20037;-37
2022/10/05 08:03:55;;;;;;;2.45;1.13;;;21.10;68.10;;;;;;5048664;28;20056;-39
2022/10/05 08:06:41;;;;;;;5.28;0.77;;;21.10;68.10;;;;;;5084054;28;20049;-39
2022/10/05 08:09:21;;;;;;;1.83;1.10;;;21.10;68.10;;;;;;5067959;28;20041;-38
2022/10/05 08:11:54;;;;;;;2.85;1.05;;;21.10;67.90;;;;;;5049758;28;20041;-39
2022/10/05 08:14:38;;;;;;;0.80;0.80;;;21.10;68.00;;;;;;5060760;28;20801;-39
2022/10/05 08:17:13;;;;;;;1.05;0.73;;;21.10;67.90;;;;;;5055495;28;20051;-39
2022/10/05 08:19:47;;;;;;;0.88;0.65;;;21.20;67.70;;;;;;5036056;28;20101;-40
2022/10/05 08:22:18;;;;;;;3.15;1.10;;;21.10;67.70;;;;;;5050337;28;20076;-38
2022/10/05 08:25:13;;;;;;;1.00;0.80;;;21.10;67.60;;;;;;5067175;28;20067;-21
2022/10/05 08:27:56;;;;;;;0.70;0.63;;;21.10;67.40;;;;;;5032000;28;20062;-37
2022/10/05 08:30:21;;;;;;;5.30;1.10;;;21.20;67.40;;;;;;5071521;28;20067;-39
2022/10/05 08:33:12;;;;;;;0.98;0.65;;;21.20;67.40;;;;;;5030166;28;20069;-39
2022/10/05 08:35:42;;;;;;;0.70;0.60;;;21.10;67.30;;;;;;5045033;28;20045;-41
2022/10/05 08:38:18;;;;;;;0.60;0.50;;;21.10;67.40;;;;;;5080297;28;20040;-40
2022/10/05 08:40:53;;;;;;;1.02;0.70;;;21.20;67.20;;;;;;5028989;28;20037;-40
2022/10/05 08:43:32;;;;;;;0.73;0.40;;;21.20;67.30;;;;;;5039847;28;20063;-39
2022/10/05 08:46:54;;;;;;;1.08;0.80;;;21.20;67.30;;;;;;5068552;28;20056;-39
2022/10/05 08:49:44;;;;;;;1.55;0.30;;;21.20;67.20;;;;;;5036481;28;20463;-39
2022/10/05 08:52:30;;;;;;;0.68;0.50;;;21.20;67.40;;;;;;5041159;28;20194;-40
2022/10/05 08:55:35;;;;;;;2.47;0.80;;;21.20;68.20;;;;;;5026255;28;20069;-38
2022/10/05 08:58:15;;;;;;;0.40;0.40;;;21.20;67.30;;;;;;5029823;28;20049;-39
2022/10/05 09:00:53;;;;;;;0.60;0.60;;;21.20;67.50;;;;;;5039891;28;20049;-39
2022/10/05 09:03:56;;;;;;;0.57;0.32;;;21.20;67.30;;;;;;5031691;28;20064;-39
2022/10/05 09:06:42;;;;;;;1.50;0.38;;;21.20;67.40;;;;;;5028810;28;20169;-40
2022/10/05 09:09:29;;;;;;;0.93;0.30;;;21.20;67.40;;;;;;5024124;28;20393;-37
2022/10/05 09:12:19;;;;;;;1.85;0.55;;;21.20;67.30;;;;;;5055587;28;20148;-39
2022/10/05 09:15:06;;;;;;;2.83;0.68;;;21.20;67.40;;;;;;5035299;28;20119;-39
2022/10/05 09:17:43;;;;;;;0.73;0.50;;;21.20;67.30;;;;;;5030717;28;20048;-39
2022/10/05 09:20:15;;;;;;;0.35;0.35;;;21.20;67.40;;;;;;5046103;28;20052;-39
2022/10/05 09:23:05;;;;;;;1.23;0.43;;;21.20;67.30;;;;;;5049608;28;20045;-36
2022/10/05 09:25:41;;;;;;;1.00;0.50;;;21.20;67.30;;;;;;5047648;28;20048;-41
2022/10/05 09:28:29;;;;;;;0.32;0.30;;;21.20;67.30;;;;;;5063439;28;20071;-38
2022/10/05 09:31:23;;;;;;;0.47;0.40;;;21.20;67.10;;;;;;5065066;28;20818;-39
2022/10/05 09:33:50;;;;;;;1.63;0.63;;;21.20;67.20;;;;;;5060284;28;20032;-39
2022/10/05 09:36:44;;;;;;;0.30;0.30;;;21.20;67.20;;;;;;5066323;28;20044;-38
2022/10/05 09:39:18;;;;;;;0.30;0.20;;;21.20;67.10;;;;;;5059528;28;20041;-37
2022/10/05 09:42:17;;;;;;;0.30;0.30;;;21.20;67.10;;;;;;5066536;28;20048;-39
2022/10/05 09:45:03;;;;;;;0.73;0.40;;;21.20;67.00;;;;;;5052155;28;20588;-39
2022/10/05 09:48:02;;;;;;;0.45;0.40;;;21.20;66.70;;;;;;5052399;28;20123;-39
2022/10/05 09:50:36;;;;;;;0.40;0.40;;;21.20;66.90;;;;;;5040737;28;20466;-39
2022/10/05 09:53:14;;;;;;;0.55;0.50;;;21.20;66.90;;;;;;5044854;28;20041;-39
2022/10/05 09:55:58;;;;;;;0.38;0.30;;;21.20;66.90;;;;;;5033976;28;20459;-40
2022/10/05 09:58:32;;;;;;;0.60;0.50;;;21.20;66.70;;;;;;5076677;28;20124;-39
2022/10/05 10:01:30;;;;;;;0.60;0.40;;;21.20;66.90;;;;;;5041693;28;20529;-39
2022/10/05 10:04:08;;;;;;;0.30;0.30;;;21.30;66.90;;;;;;5009183;28;20427;-38
2022/10/05 10:07:12;;;;;;;0.38;0.38;;;21.30;67.00;;;;;;5028153;28;20049;-36
2022/10/05 10:09:52;;;;;;;0.40;0.40;;;21.20;67.10;;;;;;5039098;28;20056;-38
2022/10/05 10:12:26;;;;;;;0.85;0.47;;;21.20;66.90;;;;;;5042359;28;20159;-39
2022/10/05 10:15:20;;;;;;;0.68;0.40;;;21.20;67.30;;;;;;5046161;28;20056;-38
2022/10/05 10:17:48;;;;;;;0.38;0.38;;;21.20;67.10;;;;;;5046743;28;20592;-38
2022/10/05 10:20:35;;;;;;;0.50;0.30;;;21.20;67.10;;;;;;5045042;28;20060;-39
2022/10/05 10:23:25;;;;;;;0.63;0.40;;;21.30;67.00;;;;;;5060883;28;20056;-36
2022/10/05 10:26:03;;;;;;;0.88;0.38;;;21.30;66.90;;;;;;5068954;28;20048;-31
2022/10/05 10:28:46;;;;;;;0.28;0.28;;;21.30;67.00;;;;;;5064619;28;20048;-39
2022/10/05 10:31:42;;;;;;;0.82;0.40;;;21.30;67.70;;;;;;5063055;28;20423;-39
2022/10/05 10:34:34;;;;;;;0.98;0.40;;;21.30;67.30;;;;;;5058903;28;20044;-39
2022/10/05 10:37:09;;;;;;;0.65;0.40;;;21.40;67.20;;;;;;5076781;28;20055;-38
2022/10/05 10:39:35;;;;;;;3.38;0.70;;;21.40;67.30;;;;;;5064292;28;20162;-36
2022/10/05 10:42:18;;;;;;;0.40;0.30;;;21.50;67.40;;;;;;5065271;28;20068;-40
2022/10/05 10:45:20;;;;;;;0.70;0.45;;;21.50;67.20;;;;;;5065886;28;20144;-40
2022/10/05 10:47:59;;;;;;;0.30;0.28;;;21.40;66.90;;;;;;5038142;28;20473;-39
2022/10/05 10:50:48;;;;;;;0.50;0.13;;;21.50;67.30;;;;;;5066245;28;20051;-39
2022/10/05 10:53:47;;;;;;;0.63;0.40;;;21.50;67.30;;;;;;5060751;28;20052;-38
2022/10/05 10:56:31;;;;;;;0.38;0.30;;;21.50;67.40;;;;;;5063933;28;20144;-38
2022/10/05 10:59:22;;;;;;;0.30;0.30;;;21.50;67.10;;;;;;5062185;28;20036;-39
2022/10/05 11:02:13;;;;;;;0.30;0.30;;;21.50;67.10;;;;;;4703065;28;10000136;-39
2022/10/05 11:05:15;;;;;;;0.50;0.40;;;21.50;67.10;;;;;;5031612;28;20057;-39
2022/10/05 11:07:59;;;;;;;0.40;0.40;;;21.50;67.30;;;;;;5052010;28;20156;-39
2022/10/05 11:10:59;;;;;;;1.05;0.40;;;21.50;67.30;;;;;;5054513;28;20064;-41
2022/10/05 11:13:52;;;;;;;1.42;0.40;;;21.50;67.50;;;;;;5040816;28;20048;-39
2022/10/05 11:16:46;;;;;;;0.68;0.40;;;21.50;67.70;;;;;;5039480;28;20041;-38
2022/10/05 11:19:37;;;;;;;2.75;0.30;;;21.50;68.00;;;;;;5060103;28;20075;-39
2022/10/05 11:22:21;;;;;;;1.33;0.40;;;21.50;67.90;;;;;;5047145;28;20051;-39
2022/10/05 11:25:08;;;;;;;1.23;0.45;;;21.50;68.30;;;;;;5051463;28;20052;-41
2022/10/05 11:28:09;;;;;;;1.17;0.40;;;21.50;68.10;;;;;;5042459;28;20041;-43
2022/10/05 11:30:46;;;;;;;0.50;0.38;;;21.50;67.90;;;;;;5054669;28;20033;-39
2022/10/05 11:33:41;;;;;;;0.47;0.47;;;21.50;68.20;;;;;;5059215;28;20048;-39
2022/10/05 11:36:16;;;;;;;1.33;0.35;;;21.50;68.30;;;;;;5061858;28;20411;-39
2022/10/05 11:38:52;;;;;;;0.38;0.30;;;21.50;67.80;;;;;;5062127;28;20044;-38
2022/10/05 11:41:40;;;;;;;0.40;0.40;;;21.50;67.90;;;;;;5063204;28;20040;-41
2022/10/05 11:44:11;;;;;;;0.43;0.35;;;21.50;67.80;;;;;;5061086;28;20050;-38
2022/10/05 11:46:39;;;;;;;1.92;0.40;;;21.50;67.70;;;;;;5063593;28;20064;-39
2022/10/05 11:49:31;;;;;;;0.63;0.30;;;21.50;67.70;;;;;;5062993;28;20056;-38
2022/10/05 11:52:15;;;;;;;0.20;0.20;;;21.50;67.60;;;;;;5047885;28;20462;-39
2022/10/05 11:54:41;;;;;;;1.02;0.40;;;21.50;67.60;;;;;;5046416;28;20136;-38
2022/10/05 11:57:16;;;;;;;4.75;0.40;;;21.50;67.70;;;;;;5051606;28;20447;-41
2022/10/05 12:00:00;;;;;;;1.20;0.52;;;21.50;67.80;;;;;;5042418;28;20057;-39
2022/10/05 12:02:44;;;;;;;;;;;21.50;67.70;;;;;;5064662;28;20455;-39
2022/10/05 12:05:17;;;;;;;0.30;0.30;;;21.40;67.60;;;;;;5064235;28;20343;-38
2022/10/05 12:07:51;;;;;;;0.20;0.10;;;21.50;67.70;;;;;;5063388;28;20050;-39
2022/10/05 12:10:22;;;;;;;0.57;0.22;;;21.50;67.70;;;;;;5067601;28;20055;-39
2022/10/05 12:12:56;;;;;;;1.45;0.28;;;21.50;67.60;;;;;;5064633;28;20077;-39
2022/10/05 12:15:30;;;;;;;0.28;0.28;;;21.50;67.60;;;;;;5064460;28;20044;-39
2022/10/05 12:18:05;;;;;;;1.38;0.30;;;21.50;67.50;;;;;;5078601;28;20044;-39
2022/10/05 12:20:35;;;;;;;1.35;0.25;;;21.50;67.50;;;;;;5077904;28;20048;-39
2022/10/05 12:23:03;;;;;;;0.95;0.32;;;21.50;67.50;;;;;;5058199;28;20045;-37
2022/10/05 12:25:33;;;;;;;0.35;0.30;;;21.50;67.90;;;;;;5069712;28;20599;-38
2022/10/05 12:28:03;;;;;;;0.47;0.30;;;21.50;67.50;;;;;;5066705;28;20048;-39
2022/10/05 12:30:57;;;;;;;0.30;0.30;;;21.50;67.90;;;;;;5046686;28;20040;-45
2022/10/05 12:33:40;;;;;;;1.30;0.40;;;21.60;67.90;;;;;;5063108;28;20427;-45
2022/10/05 12:36:06;;;;;;;1.35;0.35;;;21.60;67.50;;;;;;5040578;28;20055;-47
2022/10/05 12:38:39;;;;;;;0.45;0.38;;;21.60;67.50;;;;;;5048215;28;20045;-45
2022/10/05 12:41:17;;;;;;;0.68;0.30;;;21.60;67.50;;;;;;5053357;28;20044;-45
2022/10/05 12:44:04;;;;;;;0.28;0.20;;;21.50;67.60;;;;;;5045136;28;20148;-45
2022/10/05 12:46:37;;;;;;;0.40;0.20;;;21.60;67.60;;;;;;5029441;28;20049;-46
2022/10/05 12:49:21;;;;;;;0.20;0.20;;;21.60;68.10;;;;;;5039119;28;20053;-44
2022/10/05 12:51:57;;;;;;;0.45;0.20;;;21.60;67.20;;;;;;5057879;28;20037;-45
2022/10/05 12:54:29;;;;;;;1.33;0.40;;;21.60;67.50;;;;;;5036705;28;20053;-46
2022/10/05 12:57:13;;;;;;;0.40;0.20;;;21.60;67.40;;;;;;5065994;28;20414;-47
2022/10/05 12:59:58;;;;;;;0.28;0.20;;;21.60;67.40;;;;;;5066992;28;20049;-55
2022/10/05 13:02:38;;;;;;;0.68;0.30;;;21.60;67.30;;;;;;5056486;28;20140;-53
2022/10/05 13:05:09;;;;;;;0.52;0.35;;;21.60;67.30;;;;;;5061714;28;20503;-50
2022/10/05 13:07:38;;;;;;;0.40;0.20;;;21.60;67.40;;;;;;5058728;28;20045;-48
2022/10/05 13:10:10;;;;;;;0.20;0.20;;;21.60;67.80;;;;;;5063706;28;20043;-44
2022/10/05 13:12:51;;;;;;;1.65;0.75;;;21.60;67.70;;;;;;5062059;28;20985;-45
2022/10/05 13:15:43;;;;;;;0.40;0.22;;;21.60;67.80;;;;;;5063242;28;20053;-44
2022/10/05 13:18:27;;;;;;;3.10;0.32;;;21.60;67.70;;;;;;5047609;28;20040;-47
2022/10/05 13:21:20;;;;;;;0.20;0.20;;;21.60;68.00;;;;;;5062165;28;20067;-51
2022/10/05 13:23:49;;;;;;;1.25;0.43;;;21.60;68.10;;;;;;5060776;28;20044;-52
2022/10/05 13:26:30;;;;;;;0.50;0.40;;;21.60;68.10;;;;;;5065730;28;20123;-49
2022/10/05 13:29:09;;;;;;;0.47;0.30;;;21.60;68.10;;;;;;5063086;28;20037;-57
2022/10/05 13:31:45;;;;;;;1.02;0.40;;;21.60;68.00;;;;;;5062573;28;20494;-53
2022/10/05 13:34:32;;;;;;;0.40;0.30;;;21.70;68.80;;;;;;5057446;28;20109;-52
2022/10/05 13:37:04;;;;;;;0.82;0.45;;;21.70;68.40;;;;;;5063198;28;20120;-42
2022/10/05 13:39:50;;;;;;;1.65;0.45;;;21.70;68.60;;;;;;5059321;28;20055;-55
2022/10/05 13:42:38;;;;;;;0.50;0.30;;;21.60;68.30;;;;;;5064085;28;20033;-55
2022/10/05 13:45:36;;;;;;;2.50;0.50;;;21.60;68.70;;;;;;5062661;28;20033;-46
2022/10/05 13:48:40;;;;;;;0.50;0.40;;;21.60;68.60;;;;;;5056881;28;20028;-51
2022/10/05 13:51:21;;;;;;;0.73;0.27;;;21.70;68.90;;;;;;5051778;28;20040;-47
2022/10/05 13:54:18;;;;;;;0.63;0.25;;;21.70;68.70;;;;;;5045319;28;20676;-55
2022/10/05 13:57:05;;;;;;;1.85;0.75;;;21.70;69.00;;;;;;5042968;28;20114;-41
2022/10/05 13:59:46;;;;;;;0.45;0.30;;;21.60;69.00;;;;;;5058759;28;20037;-58
2022/10/05 14:02:16;;;;;;;0.75;0.50;;;21.60;69.00;;;;;;5046092;28;20049;-47
2022/10/05 14:04:49;;;;;;;0.70;0.28;;;21.60;69.10;;;;;;5056711;28;20055;-58